Terminal Aerodrome Forecast
Issued by NWS Sterling, VA

Current Version | Previous Version | Graphics & Text | Print | Product List | Glossary On
Versions: 1 2 3 4 5 6 7 8 9 10 11 12 13 14 15 16 17 18 19 20 21 22 23 24
000
FTUS41 KLWX 201100
TAFIAD
TAF
KIAD 201137Z 2012/2118 VRB03KT P6SM FEW090
     FM201500 18006KT P6SM FEW090
     FM210700 00000KT 5SM BR SCT250
     FM211300 21006KT P6SM SCT250=

USA.gov is the U.S. government's official web portal to all federal, state and local government web resources and services.